sensor_id;sensor_type;location;lat;lon;timestamp;P1;durP1;ratioP1;P2;durP2;ratioP2
43933;SDS011;59081;42.706;23.306;2023-04-15T00:01:24;11.07;;;6.35;;
43933;SDS011;59081;42.706;23.306;2023-04-15T00:03:50;9.88;;;5.25;;
43933;SDS011;59081;42.706;23.306;2023-04-15T00:06:17;10.75;;;4.65;;
43933;SDS011;59081;42.706;23.306;2023-04-15T00:08:46;15.63;;;5.10;;
43933;SDS011;59081;42.706;23.306;2023-04-15T00:11:13;8.77;;;5.22;;
43933;SDS011;59081;42.706;23.306;2023-04-15T00:13:39;9.85;;;5.22;;
43933;SDS011;59081;42.706;23.306;2023-04-15T00:16:05;11.80;;;5.47;;
43933;SDS011;59081;42.706;23.306;2023-04-15T00:18:34;12.60;;;5.40;;
43933;SDS011;59081;42.706;23.306;2023-04-15T00:20:59;9.50;;;4.93;;
43933;SDS011;59081;42.706;23.306;2023-04-15T00:23:25;8.90;;;5.65;;
43933;SDS011;59081;42.706;23.306;2023-04-15T00:25:51;11.98;;;7.10;;
43933;SDS011;59081;42.706;23.306;2023-04-15T00:28:16;11.32;;;6.55;;
43933;SDS011;59081;42.706;23.306;2023-04-15T00:30:42;13.15;;;7.00;;
43933;SDS011;59081;42.706;23.306;2023-04-15T00:33:08;16.92;;;7.90;;
43933;SDS011;59081;42.706;23.306;2023-04-15T00:35:34;17.20;;;9.77;;
43933;SDS011;59081;42.706;23.306;2023-04-15T00:38:01;18.75;;;8.77;;
43933;SDS011;59081;42.706;23.306;2023-04-15T00:40:27;15.68;;;6.80;;
43933;SDS011;59081;42.706;23.306;2023-04-15T00:42:52;12.70;;;6.78;;
43933;SDS011;59081;42.706;23.306;2023-04-15T00:45:18;13.60;;;7.03;;
43933;SDS011;59081;42.706;23.306;2023-04-15T00:47:43;12.63;;;6.85;;
43933;SDS011;59081;42.706;23.306;2023-04-15T00:50:10;13.10;;;7.10;;
43933;SDS011;59081;42.706;23.306;2023-04-15T00:52:36;15.20;;;6.63;;
43933;SDS011;59081;42.706;23.306;2023-04-15T00:55:03;13.25;;;6.60;;
43933;SDS011;59081;42.706;23.306;2023-04-15T00:57:29;13.93;;;6.70;;
43933;SDS011;59081;42.706;23.306;2023-04-15T00:59:55;14.68;;;7.70;;
43933;SDS011;59081;42.706;23.306;2023-04-15T01:02:22;13.80;;;7.30;;
43933;SDS011;59081;42.706;23.306;2023-04-15T01:04:47;17.52;;;7.47;;
43933;SDS011;59081;42.706;23.306;2023-04-15T01:07:14;11.25;;;6.88;;
43933;SDS011;59081;42.706;23.306;2023-04-15T01:09:40;12.68;;;7.07;;
43933;SDS011;59081;42.706;23.306;2023-04-15T01:12:06;16.20;;;6.53;;
43933;SDS011;59081;42.706;23.306;2023-04-15T01:14:34;13.18;;;6.97;;
43933;SDS011;59081;42.706;23.306;2023-04-15T01:17:00;15.27;;;7.85;;
43933;SDS011;59081;42.706;23.306;2023-04-15T01:19:26;15.27;;;7.57;;
43933;SDS011;59081;42.706;23.306;2023-04-15T01:21:52;13.40;;;5.90;;
43933;SDS011;59081;42.706;23.306;2023-04-15T01:24:18;12.35;;;6.47;;
43933;SDS011;59081;42.706;23.306;2023-04-15T01:26:43;14.70;;;7.65;;
43933;SDS011;59081;42.706;23.306;2023-04-15T01:29:10;14.65;;;7.15;;
43933;SDS011;59081;42.706;23.306;2023-04-15T01:31:37;12.25;;;7.30;;
43933;SDS011;59081;42.706;23.306;2023-04-15T01:34:02;13.48;;;7.68;;
43933;SDS011;59081;42.706;23.306;2023-04-15T01:36:28;11.60;;;7.72;;
43933;SDS011;59081;42.706;23.306;2023-04-15T01:38:54;11.18;;;6.93;;
43933;SDS011;59081;42.706;23.306;2023-04-15T01:41:24;14.90;;;7.30;;
43933;SDS011;59081;42.706;23.306;2023-04-15T01:43:51;11.82;;;7.50;;
43933;SDS011;59081;42.706;23.306;2023-04-15T01:46:16;12.75;;;6.93;;
43933;SDS011;59081;42.706;23.306;2023-04-15T01:48:42;12.73;;;7.03;;
43933;SDS011;59081;42.706;23.306;2023-04-15T01:51:07;14.02;;;7.15;;
43933;SDS011;59081;42.706;23.306;2023-04-15T01:53:33;12.15;;;7.07;;
43933;SDS011;59081;42.706;23.306;2023-04-15T01:55:58;12.90;;;6.53;;
43933;SDS011;59081;42.706;23.306;2023-04-15T01:58:24;14.20;;;7.53;;
43933;SDS011;59081;42.706;23.306;2023-04-15T02:00:50;16.25;;;8.18;;
43933;SDS011;59081;42.706;23.306;2023-04-15T02:03:15;13.52;;;6.88;;
43933;SDS011;59081;42.706;23.306;2023-04-15T02:05:41;12.75;;;7.13;;
43933;SDS011;59081;42.706;23.306;2023-04-15T02:08:06;13.77;;;6.55;;
43933;SDS011;59081;42.706;23.306;2023-04-15T02:10:33;12.48;;;7.35;;
43933;SDS011;59081;42.706;23.306;2023-04-15T02:12:59;10.18;;;6.38;;
43933;SDS011;59081;42.706;23.306;2023-04-15T02:15:25;12.98;;;7.53;;
43933;SDS011;59081;42.706;23.306;2023-04-15T02:17:50;12.88;;;7.00;;
43933;SDS011;59081;42.706;23.306;2023-04-15T02:20:19;15.52;;;7.50;;
43933;SDS011;59081;42.706;23.306;2023-04-15T02:22:45;11.95;;;6.45;;
43933;SDS011;59081;42.706;23.306;2023-04-15T02:25:12;13.57;;;7.93;;
43933;SDS011;59081;42.706;23.306;2023-04-15T02:27:38;10.50;;;6.40;;
43933;SDS011;59081;42.706;23.306;2023-04-15T02:30:03;11.88;;;6.80;;
43933;SDS011;59081;42.706;23.306;2023-04-15T02:32:29;11.13;;;5.85;;
43933;SDS011;59081;42.706;23.306;2023-04-15T02:34:55;13.48;;;7.18;;
43933;SDS011;59081;42.706;23.306;2023-04-15T02:37:20;10.45;;;6.75;;
43933;SDS011;59081;42.706;23.306;2023-04-15T02:39:47;13.27;;;7.10;;
43933;SDS011;59081;42.706;23.306;2023-04-15T02:42:12;11.77;;;7.00;;
43933;SDS011;59081;42.706;23.306;2023-04-15T02:44:38;9.85;;;6.45;;
43933;SDS011;59081;42.706;23.306;2023-04-15T02:47:03;11.38;;;6.32;;
43933;SDS011;59081;42.706;23.306;2023-04-15T02:49:31;17.58;;;8.07;;
43933;SDS011;59081;42.706;23.306;2023-04-15T02:51:57;12.02;;;6.75;;
43933;SDS011;59081;42.706;23.306;2023-04-15T02:54:24;12.63;;;7.55;;
43933;SDS011;59081;42.706;23.306;2023-04-15T02:56:52;10.32;;;6.75;;
43933;SDS011;59081;42.706;23.306;2023-04-15T02:59:20;13.05;;;6.72;;
43933;SDS011;59081;42.706;23.306;2023-04-15T03:01:45;10.13;;;5.55;;
43933;SDS011;59081;42.706;23.306;2023-04-15T03:04:11;10.85;;;5.80;;
43933;SDS011;59081;42.706;23.306;2023-04-15T03:06:37;12.18;;;6.60;;
43933;SDS011;59081;42.706;23.306;2023-04-15T03:09:03;9.65;;;6.18;;
43933;SDS011;59081;42.706;23.306;2023-04-15T03:11:28;12.93;;;7.25;;
43933;SDS011;59081;42.706;23.306;2023-04-15T03:13:53;10.82;;;5.63;;
43933;SDS011;59081;42.706;23.306;2023-04-15T03:16:19;6.88;;;4.82;;
43933;SDS011;59081;42.706;23.306;2023-04-15T03:18:45;9.35;;;5.90;;
43933;SDS011;59081;42.706;23.306;2023-04-15T03:21:10;9.50;;;4.78;;
43933;SDS011;59081;42.706;23.306;2023-04-15T03:23:36;6.90;;;5.18;;
43933;SDS011;59081;42.706;23.306;2023-04-15T03:26:01;10.00;;;5.68;;
43933;SDS011;59081;42.706;23.306;2023-04-15T03:28:27;8.82;;;5.38;;
43933;SDS011;59081;42.706;23.306;2023-04-15T03:30:54;10.05;;;5.38;;
43933;SDS011;59081;42.706;23.306;2023-04-15T03:33:20;8.95;;;5.13;;
43933;SDS011;59081;42.706;23.306;2023-04-15T03:35:45;8.85;;;5.78;;
43933;SDS011;59081;42.706;23.306;2023-04-15T03:38:10;10.63;;;5.20;;
43933;SDS011;59081;42.706;23.306;2023-04-15T03:40:37;9.73;;;5.28;;
43933;SDS011;59081;42.706;23.306;2023-04-15T03:43:03;7.85;;;4.85;;
43933;SDS011;59081;42.706;23.306;2023-04-15T03:45:28;10.00;;;5.32;;
43933;SDS011;59081;42.706;23.306;2023-04-15T03:47:54;10.20;;;5.35;;
43933;SDS011;59081;42.706;23.306;2023-04-15T03:50:20;8.38;;;5.43;;
43933;SDS011;59081;42.706;23.306;2023-04-15T03:52:45;7.40;;;5.25;;
43933;SDS011;59081;42.706;23.306;2023-04-15T03:55:11;9.57;;;6.13;;
43933;SDS011;59081;42.706;23.306;2023-04-15T03:57:36;11.40;;;5.72;;
43933;SDS011;59081;42.706;23.306;2023-04-15T04:00:06;10.93;;;6.13;;
43933;SDS011;59081;42.706;23.306;2023-04-15T04:02:34;9.02;;;5.93;;
43933;SDS011;59081;42.706;23.306;2023-04-15T04:04:59;15.68;;;6.80;;
43933;SDS011;59081;42.706;23.306;2023-04-15T04:07:25;13.43;;;7.32;;
43933;SDS011;59081;42.706;23.306;2023-04-15T04:09:50;15.20;;;7.80;;
43933;SDS011;59081;42.706;23.306;2023-04-15T04:12:16;9.40;;;4.47;;
43933;SDS011;59081;42.706;23.306;2023-04-15T04:14:41;17.60;;;7.97;;
43933;SDS011;59081;42.706;23.306;2023-04-15T04:17:07;10.18;;;7.18;;
43933;SDS011;59081;42.706;23.306;2023-04-15T04:19:32;12.45;;;7.57;;
43933;SDS011;59081;42.706;23.306;2023-04-15T04:21:58;10.80;;;7.05;;
43933;SDS011;59081;42.706;23.306;2023-04-15T04:24:23;12.45;;;6.40;;
43933;SDS011;59081;42.706;23.306;2023-04-15T04:26:49;12.10;;;7.22;;
43933;SDS011;59081;42.706;23.306;2023-04-15T04:29:15;14.82;;;6.72;;
43933;SDS011;59081;42.706;23.306;2023-04-15T04:31:40;11.95;;;7.40;;
43933;SDS011;59081;42.706;23.306;2023-04-15T04:34:06;13.60;;;6.45;;
43933;SDS011;59081;42.706;23.306;2023-04-15T04:36:31;11.68;;;6.53;;
43933;SDS011;59081;42.706;23.306;2023-04-15T04:38:57;11.45;;;6.63;;
43933;SDS011;59081;42.706;23.306;2023-04-15T04:41:22;20.10;;;9.82;;
43933;SDS011;59081;42.706;23.306;2023-04-15T04:43:48;20.02;;;7.70;;
43933;SDS011;59081;42.706;23.306;2023-04-15T04:46:13;10.57;;;6.10;;
43933;SDS011;59081;42.706;23.306;2023-04-15T04:48:39;10.50;;;7.43;;
43933;SDS011;59081;42.706;23.306;2023-04-15T04:51:05;11.93;;;6.13;;
43933;SDS011;59081;42.706;23.306;2023-04-15T04:53:31;16.80;;;6.63;;
43933;SDS011;59081;42.706;23.306;2023-04-15T04:55:57;10.32;;;6.38;;
43933;SDS011;59081;42.706;23.306;2023-04-15T04:58:22;10.07;;;5.47;;
43933;SDS011;59081;42.706;23.306;2023-04-15T05:00:48;14.85;;;6.28;;
43933;SDS011;59081;42.706;23.306;2023-04-15T05:03:13;10.52;;;6.35;;
43933;SDS011;59081;42.706;23.306;2023-04-15T05:05:39;13.63;;;7.05;;
43933;SDS011;59081;42.706;23.306;2023-04-15T05:08:05;12.32;;;6.95;;
43933;SDS011;59081;42.706;23.306;2023-04-15T05:10:31;15.38;;;5.75;;
43933;SDS011;59081;42.706;23.306;2023-04-15T05:12:57;10.25;;;6.25;;
43933;SDS011;59081;42.706;23.306;2023-04-15T05:15:25;10.45;;;5.97;;
43933;SDS011;59081;42.706;23.306;2023-04-15T05:17:51;16.70;;;6.68;;
43933;SDS011;59081;42.706;23.306;2023-04-15T05:20:16;14.52;;;6.22;;
43933;SDS011;59081;42.706;23.306;2023-04-15T05:22:42;11.20;;;5.43;;
43933;SDS011;59081;42.706;23.306;2023-04-15T05:25:07;8.32;;;5.10;;
43933;SDS011;59081;42.706;23.306;2023-04-15T05:27:33;8.00;;;5.30;;
43933;SDS011;59081;42.706;23.306;2023-04-15T05:29:59;11.68;;;5.43;;
43933;SDS011;59081;42.706;23.306;2023-04-15T05:32:25;9.38;;;5.50;;
43933;SDS011;59081;42.706;23.306;2023-04-15T05:34:50;11.80;;;6.07;;
43933;SDS011;59081;42.706;23.306;2023-04-15T05:37:16;14.60;;;6.18;;
43933;SDS011;59081;42.706;23.306;2023-04-15T05:39:41;13.10;;;6.80;;
43933;SDS011;59081;42.706;23.306;2023-04-15T05:42:07;8.73;;;5.55;;
43933;SDS011;59081;42.706;23.306;2023-04-15T05:44:32;13.30;;;5.90;;
43933;SDS011;59081;42.706;23.306;2023-04-15T05:46:58;10.18;;;7.07;;
43933;SDS011;59081;42.706;23.306;2023-04-15T05:49:23;9.48;;;5.57;;
43933;SDS011;59081;42.706;23.306;2023-04-15T05:51:49;12.70;;;6.20;;
43933;SDS011;59081;42.706;23.306;2023-04-15T05:54:15;13.68;;;6.40;;
43933;SDS011;59081;42.706;23.306;2023-04-15T05:56:41;12.02;;;6.45;;
43933;SDS011;59081;42.706;23.306;2023-04-15T05:59:06;19.27;;;6.53;;
43933;SDS011;59081;42.706;23.306;2023-04-15T06:01:32;10.48;;;5.85;;
43933;SDS011;59081;42.706;23.306;2023-04-15T06:03:58;11.75;;;6.30;;
43933;SDS011;59081;42.706;23.306;2023-04-15T06:06:24;12.55;;;6.57;;
43933;SDS011;59081;42.706;23.306;2023-04-15T06:08:51;12.20;;;6.53;;
43933;SDS011;59081;42.706;23.306;2023-04-15T06:11:16;11.65;;;6.40;;
43933;SDS011;59081;42.706;23.306;2023-04-15T06:13:42;11.15;;;6.88;;
43933;SDS011;59081;42.706;23.306;2023-04-15T06:16:07;10.15;;;6.07;;
43933;SDS011;59081;42.706;23.306;2023-04-15T06:18:33;12.30;;;6.03;;
43933;SDS011;59081;42.706;23.306;2023-04-15T06:20:58;16.00;;;6.35;;
43933;SDS011;59081;42.706;23.306;2023-04-15T06:23:24;11.45;;;6.53;;
43933;SDS011;59081;42.706;23.306;2023-04-15T06:25:49;15.23;;;6.82;;
43933;SDS011;59081;42.706;23.306;2023-04-15T06:28:15;12.75;;;6.30;;
43933;SDS011;59081;42.706;23.306;2023-04-15T06:30:41;10.88;;;6.28;;
43933;SDS011;59081;42.706;23.306;2023-04-15T06:33:06;12.15;;;7.40;;
43933;SDS011;59081;42.706;23.306;2023-04-15T06:35:32;11.18;;;6.40;;
43933;SDS011;59081;42.706;23.306;2023-04-15T06:37:57;13.02;;;5.85;;
43933;SDS011;59081;42.706;23.306;2023-04-15T06:40:23;10.05;;;6.20;;
43933;SDS011;59081;42.706;23.306;2023-04-15T06:42:48;11.50;;;6.00;;
43933;SDS011;59081;42.706;23.306;2023-04-15T06:45:14;9.13;;;4.90;;
43933;SDS011;59081;42.706;23.306;2023-04-15T06:47:40;9.68;;;5.43;;
43933;SDS011;59081;42.706;23.306;2023-04-15T06:50:06;15.02;;;6.03;;
43933;SDS011;59081;42.706;23.306;2023-04-15T06:52:31;15.43;;;5.65;;
43933;SDS011;59081;42.706;23.306;2023-04-15T06:54:57;14.10;;;6.55;;
43933;SDS011;59081;42.706;23.306;2023-04-15T06:57:23;11.45;;;5.78;;
43933;SDS011;59081;42.706;23.306;2023-04-15T06:59:49;13.02;;;5.32;;
43933;SDS011;59081;42.706;23.306;2023-04-15T07:02:15;9.38;;;4.93;;
43933;SDS011;59081;42.706;23.306;2023-04-15T07:04:41;7.43;;;3.95;;
43933;SDS011;59081;42.706;23.306;2023-04-15T07:07:06;8.32;;;4.68;;
43933;SDS011;59081;42.706;23.306;2023-04-15T07:09:32;11.27;;;4.43;;
43933;SDS011;59081;42.706;23.306;2023-04-15T07:11:58;6.72;;;4.28;;
43933;SDS011;59081;42.706;23.306;2023-04-15T07:14:24;6.70;;;3.70;;
43933;SDS011;59081;42.706;23.306;2023-04-15T07:16:49;8.18;;;3.65;;
43933;SDS011;59081;42.706;23.306;2023-04-15T07:19:15;8.98;;;4.18;;
43933;SDS011;59081;42.706;23.306;2023-04-15T07:21:40;8.80;;;3.90;;
43933;SDS011;59081;42.706;23.306;2023-04-15T07:24:06;11.93;;;4.82;;
43933;SDS011;59081;42.706;23.306;2023-04-15T07:26:31;15.27;;;5.00;;
43933;SDS011;59081;42.706;23.306;2023-04-15T07:28:57;11.38;;;4.88;;
43933;SDS011;59081;42.706;23.306;2023-04-15T07:31:22;7.35;;;3.83;;
43933;SDS011;59081;42.706;23.306;2023-04-15T07:33:48;9.07;;;4.70;;
43933;SDS011;59081;42.706;23.306;2023-04-15T07:36:13;10.70;;;4.20;;
43933;SDS011;59081;42.706;23.306;2023-04-15T07:38:39;7.78;;;4.05;;
43933;SDS011;59081;42.706;23.306;2023-04-15T07:41:04;7.07;;;3.60;;
43933;SDS011;59081;42.706;23.306;2023-04-15T07:43:30;7.00;;;3.47;;
43933;SDS011;59081;42.706;23.306;2023-04-15T07:45:55;7.10;;;3.33;;
43933;SDS011;59081;42.706;23.306;2023-04-15T07:48:21;5.85;;;3.50;;
43933;SDS011;59081;42.706;23.306;2023-04-15T07:50:46;10.10;;;3.75;;
43933;SDS011;59081;42.706;23.306;2023-04-15T07:53:12;2.35;;;1.70;;
43933;SDS011;59081;42.706;23.306;2023-04-15T07:55:38;9.85;;;2.85;;
43933;SDS011;59081;42.706;23.306;2023-04-15T07:58:04;8.02;;;3.22;;
43933;SDS011;59081;42.706;23.306;2023-04-15T08:00:30;4.45;;;2.03;;
43933;SDS011;59081;42.706;23.306;2023-04-15T08:02:56;12.52;;;3.20;;
43933;SDS011;59081;42.706;23.306;2023-04-15T08:05:23;4.13;;;2.20;;
43933;SDS011;59081;42.706;23.306;2023-04-15T08:07:51;4.30;;;2.40;;
43933;SDS011;59081;42.706;23.306;2023-04-15T08:10:16;5.43;;;2.42;;
43933;SDS011;59081;42.706;23.306;2023-04-15T08:12:44;2.78;;;1.83;;
43933;SDS011;59081;42.706;23.306;2023-04-15T08:15:13;3.15;;;1.88;;
43933;SDS011;59081;42.706;23.306;2023-04-15T08:17:39;5.28;;;2.60;;
43933;SDS011;59081;42.706;23.306;2023-04-15T08:20:04;3.83;;;2.38;;
43933;SDS011;59081;42.706;23.306;2023-04-15T08:22:30;3.33;;;1.67;;
43933;SDS011;59081;42.706;23.306;2023-04-15T08:24:56;6.45;;;2.47;;
43933;SDS011;59081;42.706;23.306;2023-04-15T08:27:22;2.75;;;0.98;;
43933;SDS011;59081;42.706;23.306;2023-04-15T08:29:47;5.88;;;2.00;;
43933;SDS011;59081;42.706;23.306;2023-04-15T08:32:12;5.40;;;1.60;;
43933;SDS011;59081;42.706;23.306;2023-04-15T08:34:38;2.25;;;1.52;;
43933;SDS011;59081;42.706;23.306;2023-04-15T08:37:04;9.02;;;1.40;;
43933;SDS011;59081;42.706;23.306;2023-04-15T08:39:30;2.92;;;1.30;;
43933;SDS011;59081;42.706;23.306;2023-04-15T08:42:00;4.57;;;1.40;;
43933;SDS011;59081;42.706;23.306;2023-04-15T08:47:00;3.92;;;1.50;;
43933;SDS011;59081;42.706;23.306;2023-04-15T08:49:27;2.70;;;1.42;;
43933;SDS011;59081;42.706;23.306;2023-04-15T08:51:53;3.58;;;1.30;;
43933;SDS011;59081;42.706;23.306;2023-04-15T08:54:20;4.40;;;1.52;;
43933;SDS011;59081;42.706;23.306;2023-04-15T08:56:46;1.27;;;1.17;;
43933;SDS011;59081;42.706;23.306;2023-04-15T08:59:13;3.22;;;1.33;;
43933;SDS011;59081;42.706;23.306;2023-04-15T09:01:39;5.97;;;2.05;;
43933;SDS011;59081;42.706;23.306;2023-04-15T09:04:04;1.88;;;1.17;;
43933;SDS011;59081;42.706;23.306;2023-04-15T09:06:32;2.67;;;1.30;;
43933;SDS011;59081;42.706;23.306;2023-04-15T09:08:57;5.72;;;1.95;;
43933;SDS011;59081;42.706;23.306;2023-04-15T09:11:23;4.60;;;1.33;;
43933;SDS011;59081;42.706;23.306;2023-04-15T09:13:49;2.17;;;1.10;;
43933;SDS011;59081;42.706;23.306;2023-04-15T09:16:15;6.40;;;2.03;;
43933;SDS011;59081;42.706;23.306;2023-04-15T09:18:41;6.28;;;1.48;;
43933;SDS011;59081;42.706;23.306;2023-04-15T09:23:38;4.50;;;1.60;;
43933;SDS011;59081;42.706;23.306;2023-04-15T09:26:04;6.00;;;2.58;;
43933;SDS011;59081;42.706;23.306;2023-04-15T09:28:30;8.45;;;2.70;;
43933;SDS011;59081;42.706;23.306;2023-04-15T09:30:59;5.03;;;1.70;;
43933;SDS011;59081;42.706;23.306;2023-04-15T09:33:26;3.22;;;1.80;;
43933;SDS011;59081;42.706;23.306;2023-04-15T09:35:59;4.25;;;1.90;;
43933;SDS011;59081;42.706;23.306;2023-04-15T09:38:26;3.30;;;1.85;;
43933;SDS011;59081;42.706;23.306;2023-04-15T09:40:52;4.25;;;1.83;;
43933;SDS011;59081;42.706;23.306;2023-04-15T09:43:18;3.70;;;1.33;;
43933;SDS011;59081;42.706;23.306;2023-04-15T09:45:50;5.53;;;1.70;;
43933;SDS011;59081;42.706;23.306;2023-04-15T09:48:21;3.78;;;2.70;;
43933;SDS011;59081;42.706;23.306;2023-04-15T09:50:58;2.97;;;2.08;;
43933;SDS011;59081;42.706;23.306;2023-04-15T09:53:24;4.07;;;2.05;;
43933;SDS011;59081;42.706;23.306;2023-04-15T09:55:51;5.13;;;2.25;;
43933;SDS011;59081;42.706;23.306;2023-04-15T09:58:21;7.13;;;1.87;;
43933;SDS011;59081;42.706;23.306;2023-04-15T10:00:48;4.18;;;1.90;;
43933;SDS011;59081;42.706;23.306;2023-04-15T10:03:25;4.70;;;1.73;;
43933;SDS011;59081;42.706;23.306;2023-04-15T10:05:53;2.65;;;1.58;;
43933;SDS011;59081;42.706;23.306;2023-04-15T10:08:22;1.92;;;1.50;;
43933;SDS011;59081;42.706;23.306;2023-04-15T10:10:49;3.03;;;1.63;;
43933;SDS011;59081;42.706;23.306;2023-04-15T10:13:19;3.03;;;1.58;;
43933;SDS011;59081;42.706;23.306;2023-04-15T10:15:56;3.08;;;1.38;;
43933;SDS011;59081;42.706;23.306;2023-04-15T10:18:29;1.63;;;1.27;;
43933;SDS011;59081;42.706;23.306;2023-04-15T10:20:58;2.22;;;1.10;;
43933;SDS011;59081;42.706;23.306;2023-04-15T10:23:25;1.60;;;0.93;;
43933;SDS011;59081;42.706;23.306;2023-04-15T10:25:51;1.30;;;1.00;;
43933;SDS011;59081;42.706;23.306;2023-04-15T10:28:18;5.65;;;1.23;;
43933;SDS011;59081;42.706;23.306;2023-04-15T10:30:44;2.88;;;1.70;;
43933;SDS011;59081;42.706;23.306;2023-04-15T10:33:11;2.03;;;0.80;;
43933;SDS011;59081;42.706;23.306;2023-04-15T10:35:38;1.20;;;0.77;;
43933;SDS011;59081;42.706;23.306;2023-04-15T10:43:50;19.65;;;10.07;;
43933;SDS011;59081;42.706;23.306;2023-04-15T10:46:21;3.13;;;2.13;;
43933;SDS011;59081;42.706;23.306;2023-04-15T10:49:11;12.23;;;6.85;;
43933;SDS011;59081;42.706;23.306;2023-04-15T10:51:39;2.50;;;1.63;;
43933;SDS011;59081;42.706;23.306;2023-04-15T10:59:28;9.13;;;2.70;;
43933;SDS011;59081;42.706;23.306;2023-04-15T11:01:59;3.15;;;1.75;;
43933;SDS011;59081;42.706;23.306;2023-04-15T11:07:33;4.20;;;0.80;;
43933;SDS011;59081;42.706;23.306;2023-04-15T11:20:40;2.30;;;0.90;;
43933;SDS011;59081;42.706;23.306;2023-04-15T11:23:07;1.55;;;0.80;;
43933;SDS011;59081;42.706;23.306;2023-04-15T11:25:33;4.30;;;1.23;;
43933;SDS011;59081;42.706;23.306;2023-04-15T11:28:02;4.35;;;1.15;;
43933;SDS011;59081;42.706;23.306;2023-04-15T11:30:29;16.23;;;0.98;;
43933;SDS011;59081;42.706;23.306;2023-04-15T11:32:58;1.83;;;0.82;;
43933;SDS011;59081;42.706;23.306;2023-04-15T11:35:25;10.13;;;6.82;;
43933;SDS011;59081;42.706;23.306;2023-04-15T11:37:51;3.00;;;0.70;;
43933;SDS011;59081;42.706;23.306;2023-04-15T11:40:21;3.90;;;0.90;;
43933;SDS011;59081;42.706;23.306;2023-04-15T11:43:04;1.92;;;0.80;;
43933;SDS011;59081;42.706;23.306;2023-04-15T11:45:29;0.80;;;0.60;;
43933;SDS011;59081;42.706;23.306;2023-04-15T11:48:03;1.25;;;1.02;;
43933;SDS011;59081;42.706;23.306;2023-04-15T11:50:32;4.60;;;0.90;;
43933;SDS011;59081;42.706;23.306;2023-04-15T11:52:58;1.48;;;1.13;;
43933;SDS011;59081;42.706;23.306;2023-04-15T11:55:28;1.05;;;0.70;;
43933;SDS011;59081;42.706;23.306;2023-04-15T11:58:11;2.85;;;0.85;;
43933;SDS011;59081;42.706;23.306;2023-04-15T12:00:41;2.08;;;0.80;;
43933;SDS011;59081;42.706;23.306;2023-04-15T12:09:30;2.42;;;0.93;;
43933;SDS011;59081;42.706;23.306;2023-04-15T12:11:55;0.45;;;0.45;;
43933;SDS011;59081;42.706;23.306;2023-04-15T12:14:26;2.22;;;1.08;;
43933;SDS011;59081;42.706;23.306;2023-04-15T12:16:54;1.45;;;0.60;;
43933;SDS011;59081;42.706;23.306;2023-04-15T12:21:56;1.80;;;0.90;;
43933;SDS011;59081;42.706;23.306;2023-04-15T12:24:24;1.20;;;0.70;;
43933;SDS011;59081;42.706;23.306;2023-04-15T12:26:54;2.83;;;1.15;;
43933;SDS011;59081;42.706;23.306;2023-04-15T12:29:26;1.05;;;0.68;;
43933;SDS011;59081;42.706;23.306;2023-04-15T12:31:57;1.60;;;1.38;;
43933;SDS011;59081;42.706;23.306;2023-04-15T12:34:31;0.47;;;0.40;;
43933;SDS011;59081;42.706;23.306;2023-04-15T12:36:57;2.65;;;0.60;;
43933;SDS011;59081;42.706;23.306;2023-04-15T12:39:25;1.83;;;0.65;;
43933;SDS011;59081;42.706;23.306;2023-04-15T12:41:52;3.45;;;1.08;;
43933;SDS011;59081;42.706;23.306;2023-04-15T12:44:18;2.28;;;1.20;;
43933;SDS011;59081;42.706;23.306;2023-04-15T12:46:45;0.70;;;0.70;;
43933;SDS011;59081;42.706;23.306;2023-04-15T12:49:10;3.65;;;1.10;;
43933;SDS011;59081;42.706;23.306;2023-04-15T12:51:38;2.58;;;0.43;;
43933;SDS011;59081;42.706;23.306;2023-04-15T12:54:04;2.67;;;0.77;;
43933;SDS011;59081;42.706;23.306;2023-04-15T12:56:29;2.78;;;0.88;;
43933;SDS011;59081;42.706;23.306;2023-04-15T12:58:55;2.05;;;0.60;;
43933;SDS011;59081;42.706;23.306;2023-04-15T13:01:20;5.70;;;0.75;;
43933;SDS011;59081;42.706;23.306;2023-04-15T13:03:46;0.73;;;0.50;;
43933;SDS011;59081;42.706;23.306;2023-04-15T13:06:12;0.45;;;0.45;;
43933;SDS011;59081;42.706;23.306;2023-04-15T13:08:37;1.65;;;0.70;;
43933;SDS011;59081;42.706;23.306;2023-04-15T13:11:03;1.10;;;0.63;;
43933;SDS011;59081;42.706;23.306;2023-04-15T13:13:28;3.75;;;0.80;;
43933;SDS011;59081;42.706;23.306;2023-04-15T13:15:56;0.68;;;0.65;;
43933;SDS011;59081;42.706;23.306;2023-04-15T13:18:21;1.20;;;0.60;;
43933;SDS011;59081;42.706;23.306;2023-04-15T13:20:50;0.65;;;0.55;;
43933;SDS011;59081;42.706;23.306;2023-04-15T13:23:15;1.65;;;0.70;;
43933;SDS011;59081;42.706;23.306;2023-04-15T13:25:41;3.95;;;0.85;;
43933;SDS011;59081;42.706;23.306;2023-04-15T13:28:07;1.27;;;0.80;;
43933;SDS011;59081;42.706;23.306;2023-04-15T13:30:33;0.80;;;0.68;;
43933;SDS011;59081;42.706;23.306;2023-04-15T13:32:58;3.50;;;0.60;;
43933;SDS011;59081;42.706;23.306;2023-04-15T13:35:24;1.42;;;0.70;;
43933;SDS011;59081;42.706;23.306;2023-04-15T13:37:49;0.80;;;0.63;;
43933;SDS011;59081;42.706;23.306;2023-04-15T13:40:15;1.30;;;0.63;;
43933;SDS011;59081;42.706;23.306;2023-04-15T13:42:41;1.20;;;0.90;;
43933;SDS011;59081;42.706;23.306;2023-04-15T13:45:07;5.00;;;1.00;;
43933;SDS011;59081;42.706;23.306;2023-04-15T13:47:33;4.05;;;1.02;;
43933;SDS011;59081;42.706;23.306;2023-04-15T13:49:58;4.13;;;0.80;;
43933;SDS011;59081;42.706;23.306;2023-04-15T13:52:23;0.55;;;0.40;;
43933;SDS011;59081;42.706;23.306;2023-04-15T13:54:49;1.15;;;0.77;;
43933;SDS011;59081;42.706;23.306;2023-04-15T13:57:15;1.08;;;0.80;;
43933;SDS011;59081;42.706;23.306;2023-04-15T13:59:40;1.85;;;0.82;;
43933;SDS011;59081;42.706;23.306;2023-04-15T14:02:06;1.95;;;0.70;;
43933;SDS011;59081;42.706;23.306;2023-04-15T14:04:31;1.60;;;0.70;;
43933;SDS011;59081;42.706;23.306;2023-04-15T14:06:57;3.80;;;0.82;;
43933;SDS011;59081;42.706;23.306;2023-04-15T14:09:23;2.38;;;0.80;;
43933;SDS011;59081;42.706;23.306;2023-04-15T14:11:49;1.35;;;0.70;;
43933;SDS011;59081;42.706;23.306;2023-04-15T14:14:15;0.90;;;0.47;;
43933;SDS011;59081;42.706;23.306;2023-04-15T14:16:41;0.75;;;0.40;;
43933;SDS011;59081;42.706;23.306;2023-04-15T14:19:06;2.85;;;0.80;;
43933;SDS011;59081;42.706;23.306;2023-04-15T14:21:32;0.70;;;0.50;;
43933;SDS011;59081;42.706;23.306;2023-04-15T14:23:57;1.30;;;0.63;;
43933;SDS011;59081;42.706;23.306;2023-04-15T14:26:23;1.73;;;0.80;;
43933;SDS011;59081;42.706;23.306;2023-04-15T14:28:48;1.80;;;0.70;;
43933;SDS011;59081;42.706;23.306;2023-04-15T14:31:14;2.50;;;0.88;;
43933;SDS011;59081;42.706;23.306;2023-04-15T14:33:40;1.33;;;0.98;;
43933;SDS011;59081;42.706;23.306;2023-04-15T14:36:06;2.40;;;0.65;;
43933;SDS011;59081;42.706;23.306;2023-04-15T14:38:35;2.30;;;0.80;;
43933;SDS011;59081;42.706;23.306;2023-04-15T14:41:03;2.58;;;0.93;;
43933;SDS011;59081;42.706;23.306;2023-04-15T14:43:29;2.08;;;0.82;;
43933;SDS011;59081;42.706;23.306;2023-04-15T14:45:54;3.40;;;1.05;;
43933;SDS011;59081;42.706;23.306;2023-04-15T14:48:20;1.20;;;0.70;;
43933;SDS011;59081;42.706;23.306;2023-04-15T14:50:45;1.85;;;0.70;;
43933;SDS011;59081;42.706;23.306;2023-04-15T14:53:11;2.67;;;1.40;;
43933;SDS011;59081;42.706;23.306;2023-04-15T14:55:36;5.03;;;1.10;;
43933;SDS011;59081;42.706;23.306;2023-04-15T14:58:02;2.92;;;1.15;;
43933;SDS011;59081;42.706;23.306;2023-04-15T15:00:28;2.97;;;1.20;;
43933;SDS011;59081;42.706;23.306;2023-04-15T15:02:54;3.88;;;1.58;;